sensor_id;sensor_type;location;lat;lon;timestamp;pressure;altitude;pressure_sealevel;temperature;humidity
73821;BME280;62150;43.582;1.456;2022-09-09T05:55:17;100225.25;;;19.60;66.28
73821;BME280;62150;43.582;1.456;2022-09-09T05:57:49;100226.06;;;19.60;66.36
73821;BME280;62150;43.582;1.456;2022-09-09T06:00:18;100223.69;;;19.57;67.93
73821;BME280;62150;43.582;1.456;2022-09-09T06:02:51;100222.38;;;19.52;67.55
73821;BME280;62150;43.582;1.456;2022-09-09T06:05:19;100214.25;;;19.43;67.66
73821;BME280;62150;43.582;1.456;2022-09-09T06:07:51;100221.97;;;19.45;68.21
73821;BME280;62150;43.582;1.456;2022-09-09T06:10:20;100225.16;;;19.49;68.20
73821;BME280;62150;43.582;1.456;2022-09-09T06:12:48;100218.31;;;19.48;68.90
73821;BME280;62150;43.582;1.456;2022-09-09T06:15:16;100217.34;;;19.49;68.91
73821;BME280;62150;43.582;1.456;2022-09-09T06:17:44;100213.81;;;19.50;69.14
73821;BME280;62150;43.582;1.456;2022-09-09T06:20:11;100219.84;;;19.50;68.83
73821;BME280;62150;43.582;1.456;2022-09-09T06:22:40;100227.34;;;19.55;68.19
73821;BME280;62150;43.582;1.456;2022-09-09T06:25:08;100220.47;;;19.54;67.75
73821;BME280;62150;43.582;1.456;2022-09-09T06:27:38;100217.75;;;19.55;68.64
73821;BME280;62150;43.582;1.456;2022-09-09T06:30:07;100213.66;;;19.64;68.87
73821;BME280;62150;43.582;1.456;2022-09-09T06:32:35;100221.91;;;19.58;69.25
73821;BME280;62150;43.582;1.456;2022-09-09T06:35:04;100219.19;;;19.59;69.68
73821;BME280;62150;43.582;1.456;2022-09-09T06:37:32;100212.44;;;19.57;70.35
73821;BME280;62150;43.582;1.456;2022-09-09T06:39:59;100213.88;;;19.61;69.06
73821;BME280;62150;43.582;1.456;2022-09-09T06:42:27;100216.41;;;19.50;70.66
73821;BME280;62150;43.582;1.456;2022-09-09T06:44:56;100217.88;;;19.54;70.12
73821;BME280;62150;43.582;1.456;2022-09-09T06:47:23;100220.25;;;19.57;71.11
73821;BME280;62150;43.582;1.456;2022-09-09T06:49:51;100228.91;;;19.57;70.28
73821;BME280;62150;43.582;1.456;2022-09-09T06:52:19;100223.81;;;19.56;70.34
73821;BME280;62150;43.582;1.456;2022-09-09T06:54:46;100221.69;;;19.61;70.79
73821;BME280;62150;43.582;1.456;2022-09-09T06:57:14;100219.56;;;19.66;70.88
73821;BME280;62150;43.582;1.456;2022-09-09T06:59:41;100219.34;;;19.69;71.12
73821;BME280;62150;43.582;1.456;2022-09-09T07:02:10;100214.13;;;19.69;70.83
73821;BME280;62150;43.582;1.456;2022-09-09T07:04:38;100214.81;;;19.60;71.80
73821;BME280;62150;43.582;1.456;2022-09-09T07:07:05;100222.28;;;19.64;71.57
73821;BME280;62150;43.582;1.456;2022-09-09T07:09:33;100223.00;;;19.66;71.44
73821;BME280;62150;43.582;1.456;2022-09-09T07:12:02;100223.59;;;19.59;71.61
73821;BME280;62150;43.582;1.456;2022-09-09T07:14:32;100218.97;;;19.62;71.58
73821;BME280;62150;43.582;1.456;2022-09-09T07:17:00;100224.53;;;19.58;71.40
73821;BME280;62150;43.582;1.456;2022-09-09T07:19:29;100224.09;;;19.75;70.46
73821;BME280;62150;43.582;1.456;2022-09-09T07:21:56;100230.13;;;19.64;72.28
73821;BME280;62150;43.582;1.456;2022-09-09T07:24:24;100220.47;;;19.54;71.86
73821;BME280;62150;43.582;1.456;2022-09-09T07:26:51;100229.75;;;19.58;71.23
73821;BME280;62150;43.582;1.456;2022-09-09T07:29:19;100223.91;;;19.54;71.02
73821;BME280;62150;43.582;1.456;2022-09-09T07:31:46;100223.97;;;19.41;72.74
73821;BME280;62150;43.582;1.456;2022-09-09T07:34:14;100228.78;;;19.59;70.05
73821;BME280;62150;43.582;1.456;2022-09-09T07:36:43;100228.31;;;19.54;71.21
73821;BME280;62150;43.582;1.456;2022-09-09T07:39:13;100230.13;;;19.40;71.38
73821;BME280;62150;43.582;1.456;2022-09-09T07:41:43;100222.69;;;19.47;70.90
73821;BME280;62150;43.582;1.456;2022-09-09T07:44:13;100223.81;;;19.56;70.50
73821;BME280;62150;43.582;1.456;2022-09-09T07:46:41;100234.84;;;19.59;70.54
73821;BME280;62150;43.582;1.456;2022-09-09T07:49:10;100237.22;;;19.62;69.29
73821;BME280;62150;43.582;1.456;2022-09-09T07:51:39;100234.94;;;19.58;71.05
73821;BME280;62150;43.582;1.456;2022-09-09T07:54:10;100237.31;;;19.61;70.13
73821;BME280;62150;43.582;1.456;2022-09-09T07:56:38;100239.22;;;19.59;70.39
73821;BME280;62150;43.582;1.456;2022-09-09T07:59:07;100238.38;;;19.58;70.78
73821;BME280;62150;43.582;1.456;2022-09-09T08:01:38;100241.09;;;19.57;71.24
73821;BME280;62150;43.582;1.456;2022-09-09T08:04:07;100240.03;;;19.59;70.30
73821;BME280;62150;43.582;1.456;2022-09-09T08:06:37;100240.44;;;19.66;69.98
73821;BME280;62150;43.582;1.456;2022-09-09T08:09:08;100244.56;;;19.68;69.11
73821;BME280;62150;43.582;1.456;2022-09-09T08:11:36;100248.13;;;19.67;69.51
73821;BME280;62150;43.582;1.456;2022-09-09T08:14:04;100244.19;;;19.62;71.02
73821;BME280;62150;43.582;1.456;2022-09-09T08:16:36;100249.41;;;19.62;70.54
73821;BME280;62150;43.582;1.456;2022-09-09T20:15:16;100361.91;;;21.26;47.41
73821;BME280;62150;43.582;1.456;2022-09-09T20:17:44;100354.44;;;21.22;47.62
73821;BME280;62150;43.582;1.456;2022-09-09T20:20:11;100354.34;;;21.12;47.41
73821;BME280;62150;43.582;1.456;2022-09-09T20:22:39;100363.84;;;21.13;47.50
73821;BME280;62150;43.582;1.456;2022-09-09T20:25:07;100365.28;;;21.06;47.40
73821;BME280;62150;43.582;1.456;2022-09-09T20:27:34;100371.34;;;20.95;47.51
73821;BME280;62150;43.582;1.456;2022-09-09T20:30:02;100370.16;;;20.99;47.69
73821;BME280;62150;43.582;1.456;2022-09-09T20:32:31;100369.31;;;20.99;47.67
73821;BME280;62150;43.582;1.456;2022-09-09T20:34:59;100373.09;;;20.95;47.74
73821;BME280;62150;43.582;1.456;2022-09-09T20:37:26;100381.91;;;20.94;47.74
73821;BME280;62150;43.582;1.456;2022-09-09T20:39:54;100372.50;;;20.80;47.69
73821;BME280;62150;43.582;1.456;2022-09-09T20:42:21;100383.56;;;20.84;47.86
73821;BME280;62150;43.582;1.456;2022-09-09T20:44:50;100376.47;;;20.74;47.63
73821;BME280;62150;43.582;1.456;2022-09-09T20:47:17;100385.97;;;20.76;47.87
73821;BME280;62150;43.582;1.456;2022-09-09T20:49:46;100384.53;;;20.71;48.37
73821;BME280;62150;43.582;1.456;2022-09-09T20:52:14;100384.88;;;20.67;48.09
73821;BME280;62150;43.582;1.456;2022-09-09T20:54:45;100386.06;;;20.63;48.09
73821;BME280;62150;43.582;1.456;2022-09-09T20:57:13;100385.94;;;20.53;48.48
73821;BME280;62150;43.582;1.456;2022-09-09T20:59:47;100383.53;;;20.50;48.13
73821;BME280;62150;43.582;1.456;2022-09-09T21:02:16;100387.34;;;20.46;48.58
73821;BME280;62150;43.582;1.456;2022-09-09T21:04:45;100389.84;;;20.48;48.44
73821;BME280;62150;43.582;1.456;2022-09-09T21:07:13;100398.03;;;20.43;48.81
73821;BME280;62150;43.582;1.456;2022-09-09T21:09:40;100396.81;;;20.36;48.70
73821;BME280;62150;43.582;1.456;2022-09-09T21:12:08;100388.97;;;20.36;48.81
73821;BME280;62150;43.582;1.456;2022-09-09T21:14:35;100391.81;;;20.33;49.19
73821;BME280;62150;43.582;1.456;2022-09-09T21:17:03;100395.38;;;20.32;48.67
73821;BME280;62150;43.582;1.456;2022-09-09T21:19:30;100399.38;;;20.25;48.95
73821;BME280;62150;43.582;1.456;2022-09-09T21:22:00;100397.00;;;20.22;48.93
73821;BME280;62150;43.582;1.456;2022-09-09T21:24:27;100397.22;;;20.19;48.73
73821;BME280;62150;43.582;1.456;2022-09-09T21:26:55;100397.94;;;20.10;48.93
73821;BME280;62150;43.582;1.456;2022-09-09T21:29:22;100394.84;;;20.16;49.16
